CEB5038 RPLL-RJGG
Flight info
| Callsign | CEB5038 |
|---|---|
| Flight time | N/A |
| Altitude | 39000 |
| Route | CAB2R CAB N884 ALBAX Y533 AZAMA Y579 ONC B597 RURIK Y53 MADOG Y753 JAKAL A1 ALBAT Y755 CARDS |
| Aircraft | A339/H-SADE1E2E3GHIJ3J5M1P2RWXY/LB2D1 |
Departure
| Time | 2026-04-30 19:57 |
|---|---|
| Airport | Ninoy Aquino International Airport (RPLL) |
Arrival
| Time | N/A |
|---|---|
| Airport | Chubu Centrair International Airport (RJGG) |
| Time | Latitude | Longitude | Altitude | Speed | Heading |
|---|---|---|---|---|---|
| 2026-04-30 19:30 | 14.51658 | 121.01515 | 90 ft | 0 kts | 46° |
| 2026-04-30 19:43 | 14.51649 | 121.01505 | 90 ft | 2 kts | 46° |
| 2026-04-30 19:43 | 14.51639 | 121.01495 | 90 ft | 2 kts | 46° |
| 2026-04-30 19:44 | 14.51618 | 121.01472 | 90 ft | 2 kts | 53° |
| 2026-04-30 19:44 | 14.51611 | 121.01458 | 90 ft | 2 kts | 79° |
| 2026-04-30 19:44 | 14.51610 | 121.01442 | 90 ft | 2 kts | 98° |
| 2026-04-30 19:44 | 14.51615 | 121.01427 | 90 ft | 2 kts | 119° |
| 2026-04-30 19:45 | 14.51621 | 121.01417 | 90 ft | 0 kts | 134° |
| 2026-04-30 19:45 | 14.51624 | 121.01414 | 90 ft | 0 kts | 136° |
| 2026-04-30 19:48 | 14.51620 | 121.01418 | 90 ft | 2 kts | 135° |
| 2026-04-30 19:48 | 14.51603 | 121.01437 | 90 ft | 4 kts | 134° |
| 2026-04-30 19:48 | 14.51572 | 121.01469 | 90 ft | 7 kts | 134° |
| 2026-04-30 19:48 | 14.51529 | 121.01514 | 90 ft | 9 kts | 134° |
| 2026-04-30 19:49 | 14.51475 | 121.01570 | 90 ft | 11 kts | 134° |
| 2026-04-30 19:49 | 14.51345 | 121.01704 | 90 ft | 14 kts | 135° |
| 2026-04-30 19:49 | 14.51272 | 121.01780 | 90 ft | 15 kts | 134° |
| 2026-04-30 19:50 | 14.51197 | 121.01858 | 90 ft | 15 kts | 135° |
| 2026-04-30 19:50 | 14.51121 | 121.01937 | 90 ft | 13 kts | 135° |
| 2026-04-30 19:50 | 14.51061 | 121.01982 | 90 ft | 8 kts | 178° |
| 2026-04-30 19:50 | 14.51012 | 121.01936 | 90 ft | 11 kts | 239° |
| 2026-04-30 19:51 | 14.50969 | 121.01860 | 90 ft | 13 kts | 240° |
| 2026-04-30 19:51 | 14.50921 | 121.01773 | 90 ft | 14 kts | 240° |
| 2026-04-30 19:51 | 14.50868 | 121.01677 | 90 ft | 16 kts | 240° |
| 2026-04-30 19:51 | 14.50810 | 121.01573 | 90 ft | 17 kts | 240° |
| 2026-04-30 19:52 | 14.50748 | 121.01463 | 90 ft | 18 kts | 240° |
| 2026-04-30 19:52 | 14.50684 | 121.01347 | 90 ft | 18 kts | 240° |
| 2026-04-30 19:52 | 14.50617 | 121.01227 | 90 ft | 19 kts | 240° |
| 2026-04-30 19:52 | 14.50552 | 121.01106 | 90 ft | 19 kts | 241° |
| 2026-04-30 19:53 | 14.50482 | 121.00982 | 90 ft | 19 kts | 239° |
| 2026-04-30 19:53 | 14.50415 | 121.00864 | 90 ft | 19 kts | 240° |
| 2026-04-30 19:53 | 14.50351 | 121.00748 | 90 ft | 18 kts | 240° |
| 2026-04-30 19:53 | 14.50286 | 121.00630 | 90 ft | 19 kts | 240° |
| 2026-04-30 19:54 | 14.50219 | 121.00509 | 90 ft | 18 kts | 240° |
| 2026-04-30 19:54 | 14.50160 | 121.00404 | 90 ft | 17 kts | 240° |
| 2026-04-30 19:54 | 14.50136 | 121.00371 | 90 ft | 2 kts | 209° |
| 2026-04-30 19:54 | 14.50104 | 121.00370 | 90 ft | 6 kts | 166° |
| 2026-04-30 19:55 | 14.50057 | 121.00391 | 90 ft | 8 kts | 154° |
| 2026-04-30 19:55 | 14.50034 | 121.00439 | 90 ft | 9 kts | 82° |
| 2026-04-30 19:55 | 14.50057 | 121.00504 | 90 ft | 9 kts | 60° |
| 2026-04-30 19:55 | 14.50071 | 121.00529 | 90 ft | 0 kts | 59° |
| 2026-04-30 19:56 | 14.50072 | 121.00530 | 90 ft | 0 kts | 59° |
| 2026-04-30 19:56 | 14.50117 | 121.00610 | 90 ft | 35 kts | 60° |
| 2026-04-30 19:56 | 14.50330 | 121.00990 | 90 ft | 85 kts | 61° |
| 2026-04-30 19:57 | 14.50702 | 121.01663 | 90 ft | 129 kts | 60° |
| 2026-04-30 19:57 | 14.51215 | 121.02589 | 113 ft | 162 kts | 63° |
| 2026-04-30 19:57 | 14.51783 | 121.03633 | 336 ft | 169 kts | 62° |
| 2026-04-30 19:57 | 14.52346 | 121.04655 | 851 ft | 159 kts | 60° |
| 2026-04-30 19:58 | 14.52877 | 121.05611 | 1298 ft | 153 kts | 60° |
| 2026-04-30 19:58 | 14.53412 | 121.06565 | 1677 ft | 152 kts | 61° |
| 2026-04-30 19:58 | 14.53950 | 121.07529 | 1921 ft | 160 kts | 61° |
| 2026-04-30 19:58 | 14.54521 | 121.08566 | 2146 ft | 170 kts | 61° |
| 2026-04-30 19:59 | 14.55129 | 121.09657 | 2366 ft | 182 kts | 61° |
| 2026-04-30 19:59 | 14.55777 | 121.10822 | 2601 ft | 195 kts | 62° |
| 2026-04-30 19:59 | 14.57576 | 121.13155 | 3090 ft | 229 kts | 28° |
| 2026-04-30 20:00 | 14.59197 | 121.13494 | 3340 ft | 250 kts | 4° |
| 2026-04-30 20:00 | 14.60995 | 121.13482 | 3651 ft | 264 kts | 4° |
| 2026-04-30 20:00 | 14.62862 | 121.13480 | 4170 ft | 267 kts | 4° |
| 2026-04-30 20:00 | 14.64731 | 121.13485 | 4754 ft | 268 kts | 4° |
| 2026-04-30 20:01 | 14.68492 | 121.13505 | 5828 ft | 273 kts | 2° |
| 2026-04-30 20:01 | 14.70428 | 121.13309 | 6334 ft | 278 kts | 351° |
| 2026-04-30 20:01 | 14.72294 | 121.12777 | 6817 ft | 282 kts | 345° |
| 2026-04-30 20:02 | 14.76056 | 121.11417 | 7773 ft | 288 kts | 343° |
| 2026-04-30 20:02 | 14.77968 | 121.10717 | 8216 ft | 291 kts | 343° |
| 2026-04-30 20:03 | 14.81833 | 121.09318 | 9114 ft | 295 kts | 343° |
| 2026-04-30 20:03 | 14.83781 | 121.08617 | 9549 ft | 298 kts | 343° |
| 2026-04-30 20:03 | 14.85745 | 121.07911 | 9986 ft | 300 kts | 343° |
| 2026-04-30 20:03 | 14.87728 | 121.07204 | 10339 ft | 305 kts | 345° |
| 2026-04-30 20:04 | 14.89824 | 121.06641 | 10535 ft | 315 kts | 351° |
| 2026-04-30 20:04 | 14.92057 | 121.06332 | 10729 ft | 325 kts | 357° |
| 2026-04-30 20:04 | 14.94350 | 121.06162 | 10927 ft | 335 kts | 358° |
| 2026-04-30 20:05 | 14.99162 | 121.05849 | 11409 ft | 353 kts | 358° |
| 2026-04-30 20:05 | 15.01644 | 121.05683 | 11851 ft | 355 kts | 357° |
| 2026-04-30 20:05 | 15.06624 | 121.05342 | 12732 ft | 359 kts | 357° |
| 2026-04-30 20:06 | 15.09113 | 121.05172 | 13146 ft | 361 kts | 357° |
| 2026-04-30 20:06 | 15.11552 | 121.05003 | 13534 ft | 364 kts | 356° |
| 2026-04-30 20:06 | 15.14121 | 121.04823 | 13941 ft | 366 kts | 357° |
| 2026-04-30 20:06 | 15.16685 | 121.04643 | 14342 ft | 369 kts | 356° |
| 2026-04-30 20:07 | 15.19242 | 121.04466 | 14740 ft | 371 kts | 357° |
| 2026-04-30 20:07 | 15.21842 | 121.04285 | 15147 ft | 373 kts | 357° |
| 2026-04-30 20:07 | 15.27067 | 121.03922 | 15935 ft | 377 kts | 356° |
| 2026-04-30 20:08 | 15.29736 | 121.03738 | 16313 ft | 380 kts | 356° |
| 2026-04-30 20:08 | 15.32383 | 121.03553 | 16683 ft | 383 kts | 356° |
| 2026-04-30 20:08 | 15.35071 | 121.03365 | 17055 ft | 385 kts | 356° |
| 2026-04-30 20:08 | 15.37749 | 121.03178 | 17417 ft | 388 kts | 356° |
| 2026-04-30 20:09 | 15.40456 | 121.02989 | 17788 ft | 390 kts | 356° |
| 2026-04-30 20:09 | 15.43180 | 121.02800 | 18167 ft | 392 kts | 356° |
| 2026-04-30 20:09 | 15.48656 | 121.03011 | 18868 ft | 396 kts | 13° |
| 2026-04-30 20:10 | 15.53798 | 121.05122 | 19588 ft | 400 kts | 26° |
| 2026-04-30 20:10 | 15.56320 | 121.06389 | 19931 ft | 402 kts | 26° |
| 2026-04-30 20:10 | 15.58829 | 121.07651 | 20269 ft | 405 kts | 26° |
| 2026-04-30 20:11 | 15.63955 | 121.10217 | 20903 ft | 410 kts | 25° |
| 2026-04-30 20:11 | 15.66525 | 121.11498 | 21216 ft | 412 kts | 25° |
| 2026-04-30 20:11 | 15.69140 | 121.12800 | 21533 ft | 414 kts | 25° |
| 2026-04-30 20:12 | 15.74350 | 121.15391 | 22134 ft | 419 kts | 25° |
| 2026-04-30 20:12 | 15.76987 | 121.16702 | 22433 ft | 421 kts | 25° |
| 2026-04-30 20:12 | 15.79651 | 121.18027 | 22729 ft | 424 kts | 25° |
| 2026-04-30 20:13 | 15.82311 | 121.19350 | 23034 ft | 425 kts | 25° |
| 2026-04-30 20:13 | 15.85010 | 121.20692 | 23337 ft | 427 kts | 25° |
| 2026-04-30 20:13 | 15.87681 | 121.22020 | 23630 ft | 429 kts | 25° |
| 2026-04-30 20:13 | 15.90405 | 121.23375 | 23945 ft | 431 kts | 24° |
| 2026-04-30 20:14 | 15.93093 | 121.24713 | 24248 ft | 433 kts | 24° |
| 2026-04-30 20:14 | 15.95817 | 121.26069 | 24556 ft | 434 kts | 24° |
| 2026-04-30 20:14 | 15.98559 | 121.27434 | 24858 ft | 436 kts | 24° |
| 2026-04-30 20:14 | 16.01317 | 121.28809 | 25146 ft | 438 kts | 24° |
| 2026-04-30 20:15 | 16.04070 | 121.30180 | 25426 ft | 440 kts | 24° |
| 2026-04-30 20:15 | 16.06835 | 121.31559 | 25701 ft | 442 kts | 24° |
| 2026-04-30 20:15 | 16.09617 | 121.32945 | 25979 ft | 444 kts | 24° |
| 2026-04-30 20:15 | 16.12425 | 121.34346 | 26258 ft | 446 kts | 24° |
| 2026-04-30 20:16 | 16.15219 | 121.35741 | 26519 ft | 448 kts | 24° |
| 2026-04-30 20:16 | 16.18048 | 121.37154 | 26771 ft | 450 kts | 24° |
| 2026-04-30 20:16 | 16.20865 | 121.38560 | 27014 ft | 452 kts | 23° |
| 2026-04-30 20:16 | 16.23710 | 121.39980 | 27268 ft | 454 kts | 23° |
| 2026-04-30 20:17 | 16.26574 | 121.41411 | 27525 ft | 456 kts | 23° |
| 2026-04-30 20:17 | 16.29457 | 121.42852 | 27759 ft | 458 kts | 23° |
| 2026-04-30 20:17 | 16.32310 | 121.44277 | 28022 ft | 459 kts | 23° |
| 2026-04-30 20:17 | 16.35205 | 121.45725 | 28277 ft | 460 kts | 23° |
| 2026-04-30 20:18 | 16.38119 | 121.47182 | 28511 ft | 462 kts | 23° |
| 2026-04-30 20:18 | 16.40986 | 121.48617 | 28736 ft | 464 kts | 23° |
| 2026-04-30 20:18 | 16.43913 | 121.50082 | 28957 ft | 466 kts | 23° |
| 2026-04-30 20:18 | 16.46854 | 121.51554 | 29166 ft | 468 kts | 23° |
| 2026-04-30 20:19 | 16.49808 | 121.53033 | 29376 ft | 470 kts | 23° |
| 2026-04-30 20:19 | 16.51785 | 121.54024 | 29507 ft | 472 kts | 23° |
| 2026-04-30 20:19 | 16.55750 | 121.56012 | 29774 ft | 475 kts | 23° |
| 2026-04-30 20:19 | 16.58738 | 121.57510 | 29969 ft | 477 kts | 23° |
| 2026-04-30 20:20 | 16.61746 | 121.59018 | 30159 ft | 479 kts | 23° |
| 2026-04-30 20:20 | 16.64747 | 121.60524 | 30361 ft | 481 kts | 23° |
| 2026-04-30 20:20 | 16.67770 | 121.62041 | 30558 ft | 483 kts | 23° |
| 2026-04-30 20:20 | 16.70798 | 121.63563 | 30750 ft | 485 kts | 23° |
| 2026-04-30 20:21 | 16.73837 | 121.65089 | 30936 ft | 487 kts | 23° |
| 2026-04-30 20:21 | 16.76911 | 121.66634 | 31114 ft | 489 kts | 23° |
| 2026-04-30 20:21 | 16.79987 | 121.68180 | 31289 ft | 490 kts | 23° |
| 2026-04-30 20:21 | 16.83050 | 121.69721 | 31470 ft | 492 kts | 24° |
| 2026-04-30 20:22 | 16.86134 | 121.71273 | 31647 ft | 494 kts | 24° |
| 2026-04-30 20:22 | 16.89241 | 121.72837 | 31822 ft | 495 kts | 24° |
| 2026-04-30 20:22 | 16.92356 | 121.74406 | 31996 ft | 497 kts | 24° |
| 2026-04-30 20:22 | 16.95485 | 121.76010 | 32159 ft | 499 kts | 24° |
| 2026-04-30 20:23 | 16.98552 | 121.77632 | 32326 ft | 501 kts | 25° |
| 2026-04-30 20:23 | 17.01685 | 121.79305 | 32498 ft | 502 kts | 25° |
| 2026-04-30 20:23 | 17.04810 | 121.80975 | 32671 ft | 504 kts | 25° |
| 2026-04-30 20:23 | 17.07944 | 121.82647 | 32842 ft | 505 kts | 25° |
| 2026-04-30 20:24 | 17.11089 | 121.84324 | 33030 ft | 507 kts | 25° |
| 2026-04-30 20:24 | 17.14328 | 121.86048 | 33196 ft | 508 kts | 25° |
| 2026-04-30 20:24 | 17.17485 | 121.87727 | 33363 ft | 510 kts | 25° |
| 2026-04-30 20:24 | 17.20638 | 121.89404 | 33525 ft | 511 kts | 25° |
| 2026-04-30 20:25 | 17.27016 | 121.92801 | 33814 ft | 514 kts | 25° |
| 2026-04-30 20:25 | 17.30183 | 121.94488 | 33966 ft | 515 kts | 24° |
| 2026-04-30 20:26 | 17.36619 | 121.97919 | 34257 ft | 517 kts | 25° |
| 2026-04-30 20:26 | 17.43052 | 122.01350 | 34550 ft | 519 kts | 24° |
| 2026-04-30 20:26 | 17.46259 | 122.03062 | 34683 ft | 520 kts | 25° |
| 2026-04-30 20:27 | 17.52706 | 122.06506 | 34956 ft | 521 kts | 24° |
| 2026-04-30 20:27 | 17.59189 | 122.09972 | 35342 ft | 520 kts | 24° |
| 2026-04-30 20:28 | 17.65634 | 122.13420 | 35680 ft | 520 kts | 24° |
| 2026-04-30 20:28 | 17.72054 | 122.16858 | 35963 ft | 520 kts | 24° |
| 2026-04-30 20:29 | 17.78501 | 122.20313 | 36221 ft | 520 kts | 24° |
| 2026-04-30 20:30 | 17.88190 | 122.25458 | 36650 ft | 519 kts | 23° |
| 2026-04-30 20:30 | 17.97911 | 122.30490 | 37084 ft | 518 kts | 23° |
| 2026-04-30 20:31 | 18.07615 | 122.35529 | 37407 ft | 518 kts | 23° |
| 2026-04-30 20:32 | 18.17346 | 122.40601 | 37727 ft | 518 kts | 23° |
| 2026-04-30 20:32 | 18.23807 | 122.43970 | 37872 ft | 519 kts | 22° |
| 2026-04-30 20:33 | 18.33519 | 122.49040 | 38154 ft | 518 kts | 22° |
| 2026-04-30 20:33 | 18.36746 | 122.50727 | 38259 ft | 518 kts | 22° |
| 2026-04-30 20:34 | 18.43189 | 122.54095 | 38432 ft | 517 kts | 22° |
| 2026-04-30 20:34 | 18.49610 | 122.57455 | 38596 ft | 517 kts | 22° |
| 2026-04-30 20:35 | 18.52830 | 122.59140 | 38663 ft | 517 kts | 22° |
| 2026-04-30 20:35 | 18.62503 | 122.64211 | 38917 ft | 516 kts | 22° |
| 2026-04-30 20:36 | 18.68942 | 122.67588 | 38940 ft | 517 kts | 23° |
| 2026-04-30 20:37 | 18.78642 | 122.72682 | 38938 ft | 517 kts | 22° |
| 2026-04-30 20:37 | 18.85080 | 122.76067 | 38941 ft | 517 kts | 23° |
| 2026-04-30 20:38 | 18.91518 | 122.79456 | 38941 ft | 517 kts | 22° |
| 2026-04-30 20:38 | 18.97953 | 122.82846 | 38937 ft | 517 kts | 22° |
| 2026-04-30 20:39 | 19.07611 | 122.87937 | 38945 ft | 517 kts | 22° |
| 2026-04-30 20:40 | 19.17304 | 122.93054 | 38944 ft | 517 kts | 22° |
| 2026-04-30 20:40 | 19.23743 | 122.96458 | 38941 ft | 517 kts | 22° |
| 2026-04-30 20:41 | 19.33387 | 123.01561 | 38945 ft | 518 kts | 22° |
| 2026-04-30 20:41 | 19.39829 | 123.04973 | 38946 ft | 518 kts | 22° |
| 2026-04-30 20:42 | 19.46291 | 123.08398 | 38948 ft | 518 kts | 22° |
| 2026-04-30 20:43 | 19.55966 | 123.13534 | 38946 ft | 517 kts | 22° |
| 2026-04-30 20:43 | 19.62364 | 123.16934 | 38946 ft | 517 kts | 22° |
| 2026-04-30 20:44 | 19.72005 | 123.22060 | 38943 ft | 517 kts | 22° |
| 2026-04-30 20:45 | 19.84912 | 123.28938 | 38945 ft | 518 kts | 22° |
| 2026-04-30 20:45 | 19.91338 | 123.32367 | 38946 ft | 518 kts | 22° |
| 2026-04-30 20:46 | 20.04219 | 123.39250 | 38944 ft | 518 kts | 22° |
| 2026-04-30 20:47 | 20.13913 | 123.44440 | 38944 ft | 517 kts | 22° |
| 2026-04-30 20:48 | 20.23520 | 123.49585 | 38943 ft | 517 kts | 22° |
| 2026-04-30 20:48 | 20.29979 | 123.53049 | 38943 ft | 518 kts | 22° |
| 2026-04-30 20:49 | 20.36387 | 123.56490 | 38943 ft | 518 kts | 22° |
| 2026-04-30 20:50 | 20.46063 | 123.61694 | 38951 ft | 518 kts | 22° |
| 2026-04-30 20:50 | 20.52470 | 123.65142 | 38955 ft | 518 kts | 22° |
| 2026-04-30 20:51 | 20.58903 | 123.68610 | 38957 ft | 517 kts | 22° |
| 2026-04-30 20:51 | 20.68574 | 123.73827 | 38962 ft | 518 kts | 22° |
| 2026-04-30 20:52 | 20.74977 | 123.77286 | 38960 ft | 519 kts | 22° |
| 2026-04-30 20:53 | 20.84646 | 123.82513 | 38963 ft | 519 kts | 22° |
| 2026-04-30 20:53 | 20.91101 | 123.86008 | 38960 ft | 519 kts | 22° |
| 2026-04-30 20:54 | 21.00743 | 123.91236 | 38961 ft | 518 kts | 22° |
| 2026-04-30 20:55 | 21.10417 | 123.96465 | 38966 ft | 518 kts | 22° |
| 2026-04-30 20:55 | 21.16845 | 123.99945 | 38966 ft | 518 kts | 22° |
| 2026-04-30 20:56 | 21.26506 | 124.05183 | 38971 ft | 519 kts | 22° |
| 2026-04-30 20:57 | 21.36174 | 124.10432 | 38971 ft | 519 kts | 22° |
| 2026-04-30 20:57 | 21.42584 | 124.13918 | 38973 ft | 517 kts | 22° |
| 2026-04-30 20:58 | 21.52234 | 124.19170 | 38975 ft | 518 kts | 22° |
| 2026-04-30 20:58 | 21.58661 | 124.22675 | 38975 ft | 518 kts | 22° |
| 2026-04-30 20:59 | 21.68283 | 124.27927 | 38976 ft | 518 kts | 21° |
| 2026-04-30 21:00 | 21.81149 | 124.34959 | 38977 ft | 518 kts | 21° |
| 2026-04-30 21:01 | 21.90780 | 124.40234 | 38977 ft | 518 kts | 21° |
| 2026-04-30 21:02 | 22.00463 | 124.45544 | 38979 ft | 518 kts | 21° |
| 2026-04-30 21:02 | 22.06852 | 124.49053 | 38981 ft | 518 kts | 21° |
| 2026-04-30 21:03 | 22.13291 | 124.52595 | 38979 ft | 519 kts | 21° |
| 2026-04-30 21:03 | 22.19701 | 124.56122 | 38982 ft | 520 kts | 21° |
| 2026-04-30 21:04 | 22.26175 | 124.59689 | 38985 ft | 520 kts | 21° |
| 2026-04-30 21:04 | 22.35814 | 124.65005 | 38988 ft | 520 kts | 22° |
| 2026-04-30 21:05 | 22.42293 | 124.68585 | 38990 ft | 520 kts | 22° |
| 2026-04-30 21:05 | 22.48715 | 124.72136 | 38989 ft | 520 kts | 22° |
| 2026-04-30 21:06 | 22.55172 | 124.75709 | 38992 ft | 520 kts | 22° |
| 2026-04-30 21:06 | 22.61594 | 124.79269 | 38995 ft | 519 kts | 22° |
| 2026-04-30 21:07 | 22.68044 | 124.82845 | 38987 ft | 519 kts | 22° |
| 2026-04-30 21:07 | 22.74445 | 124.86401 | 38987 ft | 519 kts | 22° |
| 2026-04-30 21:08 | 22.80846 | 124.89959 | 38986 ft | 518 kts | 22° |
| 2026-04-30 21:08 | 22.87283 | 124.93539 | 38989 ft | 519 kts | 22° |
| 2026-04-30 21:09 | 22.93704 | 124.97118 | 38995 ft | 518 kts | 21° |
| 2026-04-30 21:09 | 23.00119 | 125.00697 | 39003 ft | 518 kts | 22° |
| 2026-04-30 21:10 | 23.06528 | 125.04274 | 39006 ft | 518 kts | 21° |
| 2026-04-30 21:10 | 23.12948 | 125.07861 | 39006 ft | 518 kts | 22° |
| 2026-04-30 21:11 | 23.19370 | 125.11455 | 39006 ft | 518 kts | 22° |
| 2026-04-30 21:11 | 23.25755 | 125.15031 | 39010 ft | 518 kts | 21° |
| 2026-04-30 21:12 | 23.32162 | 125.18626 | 39011 ft | 518 kts | 21° |
| 2026-04-30 21:12 | 23.38590 | 125.22234 | 39009 ft | 517 kts | 21° |
| 2026-04-30 21:13 | 23.44971 | 125.25820 | 39009 ft | 518 kts | 21° |
| 2026-04-30 21:13 | 23.51375 | 125.29433 | 39013 ft | 519 kts | 22° |
| 2026-04-30 21:14 | 23.57574 | 125.33537 | 39011 ft | 524 kts | 30° |
| 2026-04-30 21:14 | 23.63366 | 125.38437 | 39015 ft | 527 kts | 36° |
| 2026-04-30 21:15 | 23.68925 | 125.43634 | 39016 ft | 527 kts | 36° |
| 2026-04-30 21:15 | 23.74481 | 125.48844 | 39017 ft | 527 kts | 36° |
| 2026-04-30 21:16 | 23.80050 | 125.54051 | 39015 ft | 527 kts | 36° |
| 2026-04-30 21:16 | 23.85615 | 125.59249 | 39018 ft | 528 kts | 36° |
| 2026-04-30 21:17 | 23.91183 | 125.64455 | 39021 ft | 528 kts | 36° |
| 2026-04-30 21:17 | 23.96776 | 125.69686 | 39001 ft | 529 kts | 36° |
| 2026-04-30 21:18 | 24.02367 | 125.74926 | 39004 ft | 529 kts | 36° |
| 2026-04-30 21:18 | 24.07949 | 125.80162 | 39013 ft | 529 kts | 36° |
| 2026-04-30 21:19 | 24.13523 | 125.85394 | 39019 ft | 529 kts | 36° |
| 2026-04-30 21:19 | 24.19118 | 125.90654 | 39015 ft | 530 kts | 36° |
| 2026-04-30 21:20 | 24.24697 | 125.95908 | 39020 ft | 529 kts | 36° |
| 2026-04-30 21:20 | 24.30281 | 126.01169 | 39017 ft | 530 kts | 36° |
| 2026-04-30 21:21 | 24.35867 | 126.06441 | 39015 ft | 529 kts | 36° |
| 2026-04-30 21:22 | 24.44221 | 126.14336 | 39019 ft | 529 kts | 36° |
| 2026-04-30 21:23 | 24.55339 | 126.24861 | 39019 ft | 528 kts | 36° |
| 2026-04-30 21:23 | 24.63657 | 126.32757 | 39020 ft | 528 kts | 36° |
| 2026-04-30 21:24 | 24.69220 | 126.38042 | 39022 ft | 528 kts | 36° |
| 2026-04-30 21:24 | 24.74772 | 126.43326 | 39024 ft | 528 kts | 36° |
| 2026-04-30 21:25 | 24.83076 | 126.51242 | 39024 ft | 528 kts | 36° |
| 2026-04-30 21:26 | 24.91398 | 126.59187 | 39029 ft | 529 kts | 36° |
| 2026-04-30 21:27 | 24.99741 | 126.67166 | 39027 ft | 529 kts | 36° |
| 2026-04-30 21:27 | 25.05271 | 126.72464 | 39030 ft | 531 kts | 36° |
| 2026-04-30 21:28 | 25.13645 | 126.80502 | 39032 ft | 531 kts | 36° |
| 2026-04-30 21:29 | 25.21995 | 126.88532 | 39032 ft | 531 kts | 36° |
| 2026-04-30 21:30 | 25.35897 | 127.01930 | 39029 ft | 531 kts | 36° |
| 2026-04-30 21:31 | 25.49782 | 127.15353 | 39029 ft | 530 kts | 36° |
| 2026-04-30 21:32 | 25.58106 | 127.23425 | 39022 ft | 530 kts | 36° |
| 2026-04-30 21:32 | 25.63657 | 127.28812 | 39028 ft | 530 kts | 37° |
| 2026-04-30 21:33 | 25.71975 | 127.36903 | 39021 ft | 530 kts | 36° |
| 2026-04-30 21:34 | 25.77506 | 127.42293 | 39014 ft | 530 kts | 36° |
| 2026-04-30 21:34 | 25.85788 | 127.50374 | 39016 ft | 530 kts | 36° |
| 2026-04-30 21:35 | 25.91312 | 127.55772 | 39015 ft | 530 kts | 36° |
| 2026-04-30 21:35 | 25.96870 | 127.61211 | 39022 ft | 529 kts | 36° |
| 2026-04-30 21:36 | 26.02411 | 127.66638 | 39015 ft | 532 kts | 37° |
| 2026-04-30 21:37 | 26.13508 | 127.77505 | 39022 ft | 531 kts | 35° |
| 2026-04-30 21:37 | 26.19372 | 127.82398 | 39022 ft | 526 kts | 27° |
| 2026-04-30 21:38 | 26.25563 | 127.86750 | 39025 ft | 525 kts | 26° |
| 2026-04-30 21:38 | 26.31803 | 127.91065 | 39027 ft | 526 kts | 26° |
| 2026-04-30 21:39 | 26.37983 | 127.95368 | 39027 ft | 526 kts | 26° |
| 2026-04-30 21:39 | 26.44204 | 127.99718 | 39024 ft | 527 kts | 26° |
| 2026-04-30 21:40 | 26.50409 | 128.04068 | 39022 ft | 528 kts | 26° |
| 2026-04-30 21:40 | 26.56618 | 128.08427 | 39010 ft | 528 kts | 26° |
| 2026-04-30 21:41 | 26.62835 | 128.12797 | 39010 ft | 529 kts | 26° |
| 2026-04-30 21:41 | 26.69047 | 128.17172 | 39011 ft | 528 kts | 26° |
| 2026-04-30 21:42 | 26.75292 | 128.21574 | 39017 ft | 529 kts | 26° |
| 2026-04-30 21:42 | 26.81519 | 128.25970 | 39013 ft | 529 kts | 26° |
| 2026-04-30 21:43 | 26.86684 | 128.29620 | 39010 ft | 529 kts | 26° |
| 2026-04-30 21:43 | 26.93940 | 128.34753 | 39004 ft | 530 kts | 26° |
| 2026-04-30 21:44 | 27.00179 | 128.39171 | 39001 ft | 531 kts | 26° |
| 2026-04-30 21:44 | 27.06452 | 128.43625 | 39001 ft | 532 kts | 26° |
| 2026-04-30 21:45 | 27.12680 | 128.48050 | 38999 ft | 533 kts | 26° |
| 2026-04-30 21:45 | 27.18963 | 128.52521 | 38999 ft | 534 kts | 26° |
| 2026-04-30 21:46 | 27.25249 | 128.56999 | 38994 ft | 534 kts | 26° |
| 2026-04-30 21:46 | 27.31525 | 128.61481 | 38998 ft | 534 kts | 26° |
| 2026-04-30 21:47 | 27.37774 | 128.65945 | 38993 ft | 535 kts | 26° |
| 2026-04-30 21:47 | 27.43979 | 128.70734 | 38991 ft | 542 kts | 32° |
| 2026-04-30 21:48 | 27.49743 | 128.76248 | 38989 ft | 546 kts | 37° |
| 2026-04-30 21:48 | 27.55356 | 128.81947 | 38990 ft | 547 kts | 37° |
| 2026-04-30 21:49 | 27.61054 | 128.87715 | 38989 ft | 549 kts | 37° |
| 2026-04-30 21:49 | 27.66756 | 128.93466 | 38989 ft | 550 kts | 37° |
| 2026-04-30 21:50 | 27.72414 | 128.99173 | 38988 ft | 550 kts | 37° |
| 2026-04-30 21:50 | 27.78122 | 129.04941 | 38990 ft | 551 kts | 37° |
| 2026-04-30 21:51 | 27.83858 | 129.10739 | 38989 ft | 552 kts | 37° |
| 2026-04-30 21:51 | 27.89570 | 129.16493 | 38985 ft | 553 kts | 37° |
| 2026-04-30 21:52 | 27.95323 | 129.22302 | 38982 ft | 554 kts | 37° |
| 2026-04-30 21:52 | 28.01070 | 129.28113 | 38981 ft | 554 kts | 37° |
| 2026-04-30 21:53 | 28.06824 | 129.33948 | 38979 ft | 554 kts | 37° |
| 2026-04-30 21:53 | 28.12551 | 129.39761 | 38979 ft | 554 kts | 37° |
| 2026-04-30 21:54 | 28.18298 | 129.45601 | 38983 ft | 555 kts | 37° |
| 2026-04-30 21:54 | 28.24078 | 129.51456 | 38982 ft | 557 kts | 36° |
| 2026-04-30 21:55 | 28.29834 | 129.57283 | 38980 ft | 557 kts | 36° |
| 2026-04-30 21:55 | 28.35607 | 129.63136 | 38978 ft | 557 kts | 36° |
| 2026-04-30 21:56 | 28.41520 | 129.68822 | 38970 ft | 554 kts | 31° |
| 2026-04-30 21:56 | 28.47888 | 129.73662 | 38970 ft | 548 kts | 22° |
| 2026-04-30 21:57 | 28.54583 | 129.77653 | 38968 ft | 544 kts | 19° |
| 2026-04-30 21:57 | 28.61407 | 129.81514 | 38964 ft | 545 kts | 19° |
| 2026-04-30 21:58 | 28.68210 | 129.85423 | 38959 ft | 547 kts | 19° |
| 2026-04-30 21:58 | 28.74992 | 129.89354 | 38956 ft | 550 kts | 19° |
| 2026-04-30 21:59 | 28.81834 | 129.93321 | 38951 ft | 552 kts | 19° |
| 2026-04-30 22:00 | 28.92072 | 129.99281 | 38949 ft | 554 kts | 19° |
| 2026-04-30 22:00 | 29.02380 | 130.05298 | 38941 ft | 553 kts | 19° |
| 2026-04-30 22:01 | 29.09207 | 130.09285 | 38940 ft | 552 kts | 18° |
| 2026-04-30 22:01 | 29.16057 | 130.13289 | 38931 ft | 553 kts | 18° |
| 2026-04-30 22:02 | 29.22933 | 130.17319 | 38937 ft | 554 kts | 18° |
| 2026-04-30 22:02 | 29.29782 | 130.21422 | 38931 ft | 557 kts | 21° |
| 2026-04-30 22:03 | 29.36452 | 130.26180 | 38932 ft | 564 kts | 26° |
| 2026-04-30 22:03 | 29.42994 | 130.31111 | 38928 ft | 565 kts | 26° |
| 2026-04-30 22:04 | 29.49554 | 130.36047 | 38931 ft | 564 kts | 26° |
| 2026-04-30 22:05 | 29.59421 | 130.43440 | 38925 ft | 567 kts | 25° |
| 2026-04-30 22:05 | 29.65974 | 130.48360 | 38930 ft | 567 kts | 26° |
| 2026-04-30 22:06 | 29.72553 | 130.53308 | 38915 ft | 567 kts | 25° |
| 2026-04-30 22:06 | 29.82481 | 130.60780 | 38925 ft | 570 kts | 25° |
| 2026-04-30 22:07 | 29.89102 | 130.65776 | 38913 ft | 570 kts | 26° |
| 2026-04-30 22:07 | 29.95777 | 130.70819 | 38907 ft | 573 kts | 26° |
| 2026-04-30 22:08 | 30.02448 | 130.75871 | 38908 ft | 574 kts | 26° |
| 2026-04-30 22:08 | 30.09091 | 130.80908 | 38912 ft | 575 kts | 26° |
| 2026-04-30 22:09 | 30.15777 | 130.85992 | 38902 ft | 575 kts | 26° |
| 2026-04-30 22:09 | 30.22477 | 130.91093 | 38911 ft | 575 kts | 27° |
| 2026-04-30 22:10 | 30.29183 | 130.96199 | 38897 ft | 577 kts | 27° |
| 2026-04-30 22:10 | 30.35874 | 131.01317 | 38898 ft | 577 kts | 27° |
| 2026-04-30 22:11 | 30.45891 | 131.08983 | 38887 ft | 576 kts | 27° |
| 2026-04-30 22:12 | 30.52543 | 131.14085 | 38890 ft | 575 kts | 27° |
| 2026-04-30 22:12 | 30.59205 | 131.19212 | 38904 ft | 575 kts | 27° |
| 2026-04-30 22:13 | 30.65889 | 131.24359 | 38887 ft | 577 kts | 27° |
| 2026-04-30 22:13 | 30.72570 | 131.29527 | 38890 ft | 577 kts | 27° |
| 2026-04-30 22:14 | 30.79228 | 131.34685 | 38885 ft | 577 kts | 27° |
| 2026-04-30 22:14 | 30.85930 | 131.39874 | 38888 ft | 579 kts | 27° |
| 2026-04-30 22:15 | 30.92623 | 131.45075 | 38887 ft | 578 kts | 27° |
| 2026-04-30 22:15 | 30.99306 | 131.50270 | 38880 ft | 580 kts | 27° |
| 2026-04-30 22:16 | 31.06023 | 131.55501 | 38860 ft | 581 kts | 28° |
| 2026-04-30 22:17 | 31.19449 | 131.65987 | 38850 ft | 582 kts | 28° |
| 2026-04-30 22:17 | 31.29532 | 131.73894 | 38859 ft | 584 kts | 29° |
| 2026-04-30 22:18 | 31.39654 | 131.81833 | 38863 ft | 583 kts | 28° |
| 2026-04-30 22:19 | 31.49768 | 131.89781 | 38862 ft | 585 kts | 29° |
| 2026-04-30 22:20 | 31.59908 | 131.97783 | 38820 ft | 587 kts | 28° |
| 2026-04-30 22:20 | 31.70059 | 132.05806 | 38819 ft | 588 kts | 28° |
| 2026-04-30 22:21 | 31.76843 | 132.11183 | 38824 ft | 587 kts | 29° |
| 2026-04-30 22:21 | 31.83573 | 132.16522 | 38817 ft | 588 kts | 29° |
| 2026-04-30 22:22 | 31.90362 | 132.21927 | 38803 ft | 587 kts | 30° |
| 2026-04-30 22:22 | 31.97132 | 132.27327 | 38815 ft | 586 kts | 29° |
| 2026-04-30 22:23 | 32.03884 | 132.32715 | 38812 ft | 589 kts | 31° |
| 2026-04-30 22:23 | 32.10283 | 132.38779 | 38779 ft | 595 kts | 41° |
| 2026-04-30 22:24 | 32.15832 | 132.46033 | 38783 ft | 595 kts | 53° |
| 2026-04-30 22:24 | 32.20378 | 132.54135 | 38787 ft | 594 kts | 60° |
| 2026-04-30 22:25 | 32.24630 | 132.62473 | 38770 ft | 594 kts | 60° |
| 2026-04-30 22:25 | 32.28915 | 132.70769 | 38792 ft | 593 kts | 60° |
| 2026-04-30 22:26 | 32.35412 | 132.83180 | 38777 ft | 592 kts | 61° |
| 2026-04-30 22:27 | 32.39732 | 132.91467 | 38769 ft | 591 kts | 61° |
| 2026-04-30 22:27 | 32.46137 | 133.03761 | 38776 ft | 583 kts | 61° |
| 2026-04-30 22:28 | 32.52497 | 133.16017 | 38768 ft | 582 kts | 61° |
| 2026-04-30 22:29 | 32.60928 | 133.32323 | 38744 ft | 581 kts | 61° |
| 2026-04-30 22:31 | 32.75398 | 133.61023 | 38744 ft | 579 kts | 63° |
| 2026-04-30 22:32 | 32.85611 | 133.81589 | 38713 ft | 578 kts | 63° |
| 2026-04-30 22:33 | 32.95721 | 134.02068 | 38705 ft | 575 kts | 63° |
| 2026-04-30 22:35 | 33.05524 | 134.22729 | 38707 ft | 568 kts | 71° |
| 2026-04-30 22:36 | 33.10474 | 134.40340 | 38109 ft | 553 kts | 82° |
| 2026-04-30 22:36 | 33.11470 | 134.44531 | 37813 ft | 550 kts | 82° |
| 2026-04-30 22:37 | 33.14546 | 134.57266 | 36433 ft | 549 kts | 81° |
| 2026-04-30 22:37 | 33.15617 | 134.61632 | 35957 ft | 548 kts | 81° |
| 2026-04-30 22:37 | 33.17746 | 134.70332 | 34834 ft | 548 kts | 82° |
| 2026-04-30 22:38 | 33.19869 | 134.79040 | 33590 ft | 548 kts | 81° |
| 2026-04-30 22:38 | 33.21973 | 134.87712 | 32373 ft | 548 kts | 81° |
| 2026-04-30 22:39 | 33.23028 | 134.92068 | 31743 ft | 549 kts | 81° |
| 2026-04-30 22:39 | 33.26256 | 135.05141 | 30109 ft | 545 kts | 80° |
| 2026-04-30 22:40 | 33.29637 | 135.17891 | 28983 ft | 530 kts | 80° |
| 2026-04-30 22:41 | 33.32871 | 135.30307 | 27924 ft | 517 kts | 80° |
| 2026-04-30 22:41 | 33.34981 | 135.38449 | 27242 ft | 510 kts | 80° |
| 2026-04-30 22:42 | 33.44033 | 135.51361 | 25753 ft | 516 kts | 36° |
| 2026-04-30 22:43 | 33.49802 | 135.56342 | 24975 ft | 510 kts | 37° |
| 2026-04-30 22:43 | 33.55470 | 135.61430 | 24187 ft | 504 kts | 38° |
| 2026-04-30 22:44 | 33.61005 | 135.66489 | 23459 ft | 498 kts | 39° |
| 2026-04-30 22:45 | 33.71933 | 135.76447 | 21816 ft | 490 kts | 39° |
| 2026-04-30 22:45 | 33.77380 | 135.81357 | 21090 ft | 484 kts | 38° |
| 2026-04-30 22:46 | 33.82729 | 135.86198 | 20343 ft | 478 kts | 38° |
| 2026-04-30 22:47 | 33.93250 | 135.95734 | 18829 ft | 469 kts | 37° |
| 2026-04-30 22:47 | 33.98427 | 136.00439 | 18067 ft | 465 kts | 37° |
| 2026-04-30 22:48 | 34.03566 | 136.05124 | 17353 ft | 459 kts | 36° |
| 2026-04-30 22:49 | 34.11118 | 136.12003 | 16313 ft | 448 kts | 36° |
| 2026-04-30 22:49 | 34.18564 | 136.18814 | 15262 ft | 437 kts | 35° |
| 2026-04-30 22:50 | 34.28114 | 136.27507 | 13891 ft | 422 kts | 36° |
| 2026-04-30 22:51 | 34.32774 | 136.31757 | 13205 ft | 415 kts | 35° |
| 2026-04-30 22:51 | 34.37350 | 136.35934 | 12476 ft | 409 kts | 36° |
| 2026-04-30 22:52 | 34.39624 | 136.38017 | 12114 ft | 406 kts | 35° |
| 2026-04-30 22:52 | 34.44551 | 136.41180 | 11354 ft | 396 kts | 14° |
| 2026-04-30 22:53 | 34.49797 | 136.43060 | 10640 ft | 389 kts | 12° |
| 2026-04-30 22:53 | 34.54980 | 136.44870 | 10051 ft | 380 kts | 13° |
| 2026-04-30 22:53 | 34.57476 | 136.45767 | 10012 ft | 367 kts | 13° |
| 2026-04-30 22:54 | 34.62238 | 136.47499 | 9912 ft | 345 kts | 13° |
| 2026-04-30 22:55 | 34.69008 | 136.49965 | 9329 ft | 332 kts | 12° |
| 2026-04-30 22:55 | 34.73394 | 136.51564 | 8915 ft | 325 kts | 13° |
| 2026-04-30 22:56 | 34.77708 | 136.53146 | 8536 ft | 317 kts | 13° |
| 2026-04-30 22:56 | 34.83929 | 136.55426 | 7906 ft | 305 kts | 13° |
| 2026-04-30 22:57 | 34.87939 | 136.56897 | 7289 ft | 296 kts | 14° |
| 2026-04-30 22:57 | 34.91856 | 136.58333 | 6636 ft | 287 kts | 14° |
| 2026-04-30 22:58 | 34.95610 | 136.59714 | 6033 ft | 277 kts | 15° |
| 2026-04-30 22:59 | 35.00992 | 136.61690 | 5274 ft | 260 kts | 17° |
| 2026-04-30 22:59 | 35.06050 | 136.63559 | 4587 ft | 245 kts | 19° |